Time;durP1;ratioP1;P1;durP2;ratioP2;P2;SDS_P1;SDS_P2;PMS_P1;PMS_P2;Temp;Humidity;BMP_temperature;BMP_pressure;BME280_temperature;BME280_humidity;BME280_pressure;Samples;Min_cycle;Max_cycle;Signal;HPM_P1;HPM_P2
2021/03/10 00:01:11;;;;;;;6.97;4.72;;;;;;;;;;5017188;28;20417;-72
2021/03/10 00:03:37;;;;;;;6.03;4.95;;;;;;;;;;5005249;28;20423;-72
2021/03/10 00:06:02;;;;;;;7.90;4.93;;;;;;;;;;4974149;28;20069;-72
2021/03/10 00:08:28;;;;;;;5.65;4.82;;;;;;;;;;4973656;28;20073;-72
2021/03/10 00:10:53;;;;;;;4.97;4.45;;;;;;;;;;5021253;28;20118;-72
2021/03/10 00:13:19;;;;;;;6.75;5.25;;;;;;;;;;4974700;28;20443;-72
2021/03/10 00:15:44;;;;;;;6.72;4.90;;;;;;;;;;5008374;28;20038;-72
2021/03/10 00:18:10;;;;;;;7.68;4.93;;;;;;;;;;4975894;28;20041;-72
2021/03/10 00:20:35;;;;;;;6.40;5.20;;;;;;;;;;4973418;28;20406;-72
2021/03/10 00:23:01;;;;;;;6.88;5.25;;;;;;;;;;5007868;28;20034;-72
2021/03/10 00:25:26;;;;;;;8.48;5.85;;;;;;;;;;5008127;28;20124;-72
2021/03/10 00:27:52;;;;;;;6.50;5.45;;;;;;;;;;4991171;28;20038;-72
2021/03/10 00:30:17;;;;;;;6.25;5.35;;;;;;;;;;5007903;28;20643;-72
2021/03/10 00:32:43;;;;;;;6.65;5.28;;;;;;;;;;5000013;28;20038;-72
2021/03/10 00:35:09;;;;;;;7.60;5.50;;;;;;;;;;5004974;28;20117;-72
2021/03/10 00:37:34;;;;;;;5.95;4.97;;;;;;;;;;5004516;28;20058;-72
2021/03/10 00:39:59;;;;;;;5.97;5.00;;;;;;;;;;5017640;28;20045;-72
2021/03/10 00:42:25;;;;;;;10.02;6.68;;;;;;;;;;5015722;28;20034;-72
2021/03/10 00:44:50;;;;;;;7.07;6.03;;;;;;;;;;5004994;28;20059;-72
2021/03/10 00:47:16;;;;;;;6.90;5.38;;;;;;;;;;5004809;28;20540;-72
2021/03/10 00:49:41;;;;;;;6.82;6.13;;;;;;;;;;5004073;28;20047;-72
2021/03/10 00:52:07;;;;;;;6.53;5.85;;;;;;;;;;5003849;28;20089;-72
2021/03/10 00:54:33;;;;;;;7.57;6.25;;;;;;;;;;4971674;28;20525;-72
2021/03/10 00:56:59;;;;;;;8.10;6.13;;;;;;;;;;4964817;28;20038;-72
2021/03/10 00:59:27;;;;;;;7.38;6.28;;;;;;;;;;5008275;28;20416;-72
2021/03/10 01:01:53;;;;;;;7.75;5.82;;;;;;;;;;5017986;28;20101;-72
2021/03/10 01:04:19;;;;;;;7.22;5.97;;;;;;;;;;5004353;28;20038;-72
2021/03/10 01:06:44;;;;;;;8.63;6.32;;;;;;;;;;5004030;28;20489;-72
2021/03/10 01:09:11;;;;;;;7.72;6.30;;;;;;;;;;4971809;28;20121;-72
2021/03/10 01:11:36;;;;;;;7.35;6.50;;;;;;;;;;5006972;28;20169;-72
2021/03/10 01:14:02;;;;;;;7.82;6.20;;;;;;;;;;5012155;28;20440;-72
2021/03/10 01:16:27;;;;;;;7.95;6.68;;;;;;;;;;5007411;28;20045;-72
2021/03/10 01:18:53;;;;;;;7.30;6.38;;;;;;;;;;5006992;28;20081;-72
2021/03/10 01:21:18;;;;;;;9.00;6.80;;;;;;;;;;5006993;28;20043;-72
2021/03/10 01:23:44;;;;;;;6.18;5.47;;;;;;;;;;4978977;28;20066;-72
2021/03/10 01:26:09;;;;;;;7.15;6.38;;;;;;;;;;4987554;28;20043;-72
2021/03/10 01:28:34;;;;;;;9.38;6.80;;;;;;;;;;5005907;28;20421;-72
2021/03/10 01:31:00;;;;;;;6.35;5.75;;;;;;;;;;4973854;28;20429;-72
2021/03/10 01:33:25;;;;;;;6.97;6.28;;;;;;;;;;5007287;28;20453;-72
2021/03/10 01:35:51;;;;;;;6.60;5.78;;;;;;;;;;5006877;28;20464;-72
2021/03/10 01:38:16;;;;;;;7.47;6.30;;;;;;;;;;4988382;28;20468;-72
2021/03/10 01:40:41;;;;;;;7.28;6.18;;;;;;;;;;4990160;28;20068;-72
2021/03/10 01:43:07;;;;;;;8.00;6.78;;;;;;;;;;4985842;28;20417;-72
2021/03/10 01:45:33;;;;;;;9.05;7.05;;;;;;;;;;5023000;28;20042;-72
2021/03/10 01:47:59;;;;;;;8.52;7.05;;;;;;;;;;5007173;28;20400;-72
2021/03/10 01:50:26;;;;;;;7.75;6.85;;;;;;;;;;5006601;28;20039;-72
2021/03/10 01:52:55;;;;;;;8.52;6.90;;;;;;;;;;4990829;28;20057;-72
2021/03/10 01:55:21;;;;;;;7.78;6.88;;;;;;;;;;5022705;28;20038;-72
2021/03/10 01:57:47;;;;;;;7.72;6.18;;;;;;;;;;5005292;28;20050;-72
2021/03/10 02:00:13;;;;;;;7.20;6.38;;;;;;;;;;5007169;28;20034;-72
2021/03/10 02:02:38;;;;;;;7.70;6.85;;;;;;;;;;4992795;28;20406;-72
2021/03/10 02:05:04;;;;;;;7.47;6.75;;;;;;;;;;4981384;28;20042;-72
2021/03/10 02:07:59;;;;;;;7.50;6.57;;;;;;;;;;5007337;28;20042;-72
2021/03/10 02:11:07;;;;;;;8.85;6.88;;;;;;;;;;5007164;28;20718;-72
2021/03/10 02:13:58;;;;;;;9.07;8.05;;;;;;;;;;4988925;28;20050;-72
2021/03/10 02:16:41;;;;;;;7.70;6.85;;;;;;;;;;4971839;28;20560;-72
2021/03/10 02:19:12;;;;;;;;;;;;;;;;;;4990108;28;20054;-72
2021/03/10 02:21:43;;;;;;;9.48;7.22;;;;;;;;;;4975827;28;19918;-72
2021/03/10 02:24:20;;;;;;;7.80;7.00;;;;;;;;;;5006559;28;20207;-72
2021/03/10 02:26:49;;;;;;;7.85;6.80;;;;;;;;;;4990163;28;20046;-72
2021/03/10 02:29:14;;;;;;;9.85;7.40;;;;;;;;;;4975568;28;20031;-72
2021/03/10 02:31:43;;;;;;;7.53;6.82;;;;;;;;;;5009680;28;20042;-73
2021/03/10 02:34:09;;;;;;;8.98;7.50;;;;;;;;;;4978121;28;20049;-72
2021/03/10 02:36:34;;;;;;;7.88;7.07;;;;;;;;;;4961772;28;20046;-72
2021/03/10 02:39:00;;;;;;;8.63;7.65;;;;;;;;;;4980141;28;20042;-72
2021/03/10 02:41:28;;;;;;;8.27;7.32;;;;;;;;;;5004668;28;20113;-72
2021/03/10 02:43:53;;;;;;;9.65;7.80;;;;;;;;;;4982366;28;20536;-72
2021/03/10 02:46:19;;;;;;;8.45;6.82;;;;;;;;;;4990454;28;20082;-72
2021/03/10 02:48:44;;;;;;;8.82;7.80;;;;;;;;;;4976001;28;20465;-73
2021/03/10 02:51:10;;;;;;;9.20;7.65;;;;;;;;;;4973943;28;20035;-72
2021/03/10 02:53:39;;;;;;;8.88;7.65;;;;;;;;;;5006888;28;20062;-72
2021/03/10 02:56:05;;;;;;;9.05;7.15;;;;;;;;;;4976428;28;20129;-72
2021/03/10 02:58:30;;;;;;;8.20;7.18;;;;;;;;;;5006191;28;20030;-72
2021/03/10 03:00:56;;;;;;;8.15;7.32;;;;;;;;;;5006658;28;20125;-72
2021/03/10 03:03:22;;;;;;;8.43;7.53;;;;;;;;;;5023699;28;20051;-72
2021/03/10 03:05:47;;;;;;;8.68;7.80;;;;;;;;;;4993523;28;20566;-72
2021/03/10 03:08:13;;;;;;;9.15;7.68;;;;;;;;;;4982670;28;20473;-72
2021/03/10 03:10:39;;;;;;;8.45;6.93;;;;;;;;;;4989967;28;20494;-72
2021/03/10 03:13:11;;;;;;;9.48;8.57;;;;;;;;;;4990353;28;20031;-72
2021/03/10 03:15:37;;;;;;;;;;;;;;;;;;4961289;28;20500;-72
2021/03/10 03:18:04;;;;;;;8.15;7.35;;;;;;;;;;4993302;28;19964;-72
2021/03/10 03:20:29;;;;;;;8.30;7.47;;;;;;;;;;4976694;28;20042;-72
2021/03/10 03:22:55;;;;;;;10.32;7.82;;;;;;;;;;4960823;28;20556;-72
2021/03/10 03:25:23;;;;;;;8.23;7.43;;;;;;;;;;4944808;28;20575;-72
2021/03/10 03:27:52;;;;;;;7.72;6.97;;;;;;;;;;4961350;28;20073;-72
2021/03/10 03:30:18;;;;;;;9.45;7.82;;;;;;;;;;4961049;28;20027;-72
2021/03/10 03:32:43;;;;;;;8.38;6.82;;;;;;;;;;4956123;28;20134;-72
2021/03/10 03:35:09;;;;;;;9.57;8.63;;;;;;;;;;4989792;28;20035;-72
2021/03/10 03:37:35;;;;;;;7.63;6.82;;;;;;;;;;4989331;28;20046;-73
2021/03/10 03:40:00;;;;;;;7.78;6.97;;;;;;;;;;5005388;28;20432;-72
2021/03/10 03:42:26;;;;;;;7.72;6.93;;;;;;;;;;4992550;28;20432;-72
2021/03/10 03:44:51;;;;;;;8.32;7.53;;;;;;;;;;4989348;28;20057;-72
2021/03/10 03:47:17;;;;;;;7.32;6.47;;;;;;;;;;5005457;28;20039;-72
2021/03/10 03:49:49;;;;;;;8.30;7.38;;;;;;;;;;4988942;28;20421;-72
2021/03/10 03:52:14;;;;;;;7.53;6.53;;;;;;;;;;4990429;28;20042;-72
2021/03/10 03:54:40;;;;;;;8.23;7.07;;;;;;;;;;5006956;28;20046;-72
2021/03/10 03:57:05;;;;;;;7.47;6.70;;;;;;;;;;5005351;28;20068;-72
2021/03/10 03:59:31;;;;;;;8.40;7.50;;;;;;;;;;5011859;28;20088;-72
2021/03/10 04:01:56;;;;;;;8.60;7.10;;;;;;;;;;5005172;28;20502;-72
2021/03/10 04:04:22;;;;;;;8.32;7.40;;;;;;;;;;4992042;28;20420;-72
2021/03/10 04:06:48;;;;;;;7.28;6.40;;;;;;;;;;4976144;28;20121;-72
2021/03/10 04:09:13;;;;;;;8.27;7.03;;;;;;;;;;4991818;28;20101;-72
2021/03/10 04:11:39;;;;;;;8.55;7.53;;;;;;;;;;4975755;28;20497;-72
2021/03/10 04:14:04;;;;;;;8.05;7.20;;;;;;;;;;4959939;28;20048;-72
2021/03/10 04:16:30;;;;;;;7.10;6.40;;;;;;;;;;5008380;28;20398;-72
2021/03/10 04:18:55;;;;;;;8.02;7.00;;;;;;;;;;5024368;28;20042;-72
2021/03/10 04:21:21;;;;;;;9.00;7.47;;;;;;;;;;5024485;28;20468;-72
2021/03/10 04:23:46;;;;;;;7.82;6.88;;;;;;;;;;5024541;28;20049;-72
2021/03/10 04:26:12;;;;;;;7.28;6.57;;;;;;;;;;5007888;28;20398;-72
2021/03/10 04:28:37;;;;;;;7.50;6.70;;;;;;;;;;5024805;28;20423;-72
2021/03/10 04:31:03;;;;;;;7.70;6.75;;;;;;;;;;5022382;28;20472;-72
2021/03/10 04:33:28;;;;;;;8.90;7.38;;;;;;;;;;5001929;28;20502;-72
2021/03/10 04:35:54;;;;;;;7.38;6.20;;;;;;;;;;4972465;28;20121;-72
2021/03/10 04:38:19;;;;;;;8.00;7.20;;;;;;;;;;5007011;28;20428;-72
2021/03/10 04:40:45;;;;;;;7.35;6.13;;;;;;;;;;4991132;28;20038;-72
2021/03/10 04:43:10;;;;;;;7.07;6.38;;;;;;;;;;4972113;28;20054;-72
2021/03/10 04:45:36;;;;;;;6.95;6.10;;;;;;;;;;5004482;28;20045;-72
2021/03/10 04:48:01;;;;;;;7.32;6.25;;;;;;;;;;5007648;28;20046;-72
2021/03/10 04:50:26;;;;;;;7.07;6.38;;;;;;;;;;5004177;28;20453;-72
2021/03/10 04:52:52;;;;;;;6.65;5.95;;;;;;;;;;4988072;28;20065;-72
2021/03/10 04:55:17;;;;;;;7.20;6.20;;;;;;;;;;4987917;28;20046;-72
2021/03/10 04:57:43;;;;;;;6.95;6.10;;;;;;;;;;5001175;28;20421;-72
2021/03/10 05:00:09;;;;;;;8.02;6.28;;;;;;;;;;5006517;28;20038;-72
2021/03/10 05:02:35;;;;;;;6.88;6.00;;;;;;;;;;5004066;28;20030;-72
2021/03/10 05:05:01;;;;;;;7.65;6.10;;;;;;;;;;4971828;28;20047;-72
2021/03/10 05:07:26;;;;;;;6.78;6.03;;;;;;;;;;4971805;28;20494;-72
2021/03/10 05:09:52;;;;;;;7.32;6.60;;;;;;;;;;4987713;28;20047;-72
2021/03/10 05:12:17;;;;;;;7.53;6.72;;;;;;;;;;5004194;28;20117;-72
2021/03/10 05:14:43;;;;;;;7.38;6.10;;;;;;;;;;4981303;28;20413;-72
2021/03/10 05:17:08;;;;;;;6.45;5.50;;;;;;;;;;5004119;28;20043;-72
2021/03/10 05:19:33;;;;;;;6.18;5.50;;;;;;;;;;4971236;28;20397;-72
2021/03/10 05:21:59;;;;;;;7.20;6.50;;;;;;;;;;4972109;28;20401;-72
2021/03/10 05:24:24;;;;;;;7.90;6.78;;;;;;;;;;4971236;28;20043;-72
2021/03/10 05:26:50;;;;;;;7.22;6.22;;;;;;;;;;4955942;28;20039;-72
2021/03/10 05:29:15;;;;;;;6.60;5.90;;;;;;;;;;4987844;28;20101;-72
2021/03/10 05:31:40;;;;;;;7.40;6.40;;;;;;;;;;4990960;28;20030;-72
2021/03/10 05:34:06;;;;;;;6.40;5.60;;;;;;;;;;4974824;28;20194;-72
2021/03/10 05:36:31;;;;;;;6.85;6.15;;;;;;;;;;4974610;28;20054;-72
2021/03/10 05:38:57;;;;;;;6.25;5.65;;;;;;;;;;4973478;28;20057;-72
2021/03/10 05:41:22;;;;;;;7.13;6.43;;;;;;;;;;5011321;28;20405;-72
2021/03/10 05:43:48;;;;;;;6.63;5.90;;;;;;;;;;5005474;28;20088;-73
2021/03/10 05:46:13;;;;;;;6.82;5.75;;;;;;;;;;5027637;28;20038;-74
2021/03/10 05:48:39;;;;;;;6.43;5.70;;;;;;;;;;5027448;28;20039;-73
2021/03/10 05:51:05;;;;;;;6.55;5.63;;;;;;;;;;5010725;28;20043;-73
2021/03/10 05:53:32;;;;;;;8.75;5.82;;;;;;;;;;5005080;28;20081;-73
2021/03/10 05:56:00;;;;;;;6.82;5.50;;;;;;;;;;4991422;28;20048;-73
2021/03/10 05:58:26;;;;;;;6.82;6.13;;;;;;;;;;5008740;28;20062;-73
2021/03/10 06:00:51;;;;;;;6.88;5.97;;;;;;;;;;5010789;28;20128;-74
2021/03/10 06:03:17;;;;;;;7.72;6.10;;;;;;;;;;4994617;28;20043;-74
2021/03/10 06:05:42;;;;;;;11.43;6.50;;;;;;;;;;5010716;28;20050;-73
2021/03/10 06:08:10;;;;;;;9.30;5.72;;;;;;;;;;4969255;28;20049;-73
2021/03/10 06:10:35;;;;;;;10.30;5.80;;;;;;;;;;4990984;28;20578;-73
2021/03/10 06:13:01;;;;;;;6.53;5.88;;;;;;;;;;4991213;28;20214;-73
2021/03/10 06:15:26;;;;;;;9.05;5.95;;;;;;;;;;5023172;28;20042;-73
2021/03/10 06:17:52;;;;;;;8.88;6.22;;;;;;;;;;5007231;28;20043;-74
2021/03/10 06:20:24;;;;;;;9.95;6.20;;;;;;;;;;5006722;28;20035;-73
2021/03/10 06:22:51;;;;;;;7.88;6.00;;;;;;;;;;5006717;28;20512;-73
2021/03/10 06:25:16;;;;;;;9.73;6.72;;;;;;;;;;5007020;28;20109;-74
2021/03/10 06:27:55;;;;;;;10.68;6.45;;;;;;;;;;5030226;28;20117;-73
2021/03/10 06:30:30;;;;;;;15.25;7.25;;;;;;;;;;4974658;28;20046;-73
2021/03/10 06:32:56;;;;;;;11.48;7.22;;;;;;;;;;4990803;28;20038;-73
2021/03/10 06:35:28;;;;;;;17.48;8.02;;;;;;;;;;4993589;28;20047;-73
2021/03/10 06:38:08;;;;;;;14.15;7.55;;;;;;;;;;5006494;28;20089;-73
2021/03/10 06:40:33;;;;;;;12.23;7.05;;;;;;;;;;5020326;28;20117;-74
2021/03/10 06:42:59;;;;;;;10.35;6.75;;;;;;;;;;4996761;28;20030;-73
2021/03/10 06:45:32;;;;;;;12.88;7.38;;;;;;;;;;5006218;28;20038;-74
2021/03/10 06:47:57;;;;;;;13.73;6.72;;;;;;;;;;5022694;28;20117;-74
2021/03/10 06:50:32;;;;;;;20.23;13.95;;;;;;;;;;5008268;28;20121;-74
2021/03/10 06:52:58;;;;;;;50.30;32.53;;;;;;;;;;4993968;28;20563;-74
2021/03/10 06:55:23;;;;;;;36.13;26.33;;;;;;;;;;4957079;28;20077;-74
2021/03/10 06:57:49;;;;;;;33.60;24.98;;;;;;;;;;5001945;28;20069;-75
2021/03/10 07:00:27;;;;;;;37.72;24.42;;;;;;;;;;4948666;28;20432;-74
2021/03/10 07:02:52;;;;;;;33.05;21.45;;;;;;;;;;4993881;28;20082;-74
2021/03/10 07:05:18;;;;;;;31.48;21.73;;;;;;;;;;4977060;28;20096;-74
2021/03/10 07:07:43;;;;;;;28.30;19.60;;;;;;;;;;4990387;28;20042;-76
2021/03/10 07:10:09;;;;;;;24.20;17.30;;;;;;;;;;5007980;28;20039;-75
2021/03/10 07:12:34;;;;;;;28.58;18.35;;;;;;;;;;4993655;28;20042;-75
2021/03/10 07:15:04;;;;;;;27.23;17.17;;;;;;;;;;4977641;28;20039;-75
2021/03/10 07:17:29;;;;;;;31.38;17.65;;;;;;;;;;5006121;28;20046;-76
2021/03/10 07:19:55;;;;;;;27.20;15.63;;;;;;;;;;4989463;28;20541;-76
2021/03/10 07:22:26;;;;;;;28.65;16.08;;;;;;;;;;4973122;28;20065;-76
2021/03/10 07:25:03;;;;;;;30.92;16.38;;;;;;;;;;4973606;28;20461;-76
2021/03/10 07:27:44;;;;;;;23.92;14.60;;;;;;;;;;4973143;28;20051;-76
2021/03/10 07:30:10;;;;;;;22.27;13.95;;;;;;;;;;5008650;28;20043;-74
2021/03/10 07:32:35;;;;;;;19.38;14.32;;;;;;;;;;4980944;28;20027;-74
2021/03/10 07:35:05;;;;;;;21.88;14.73;;;;;;;;;;4976475;28;20181;-74
2021/03/10 07:37:30;;;;;;;26.38;14.38;;;;;;;;;;4976672;28;20382;-74
2021/03/10 07:40:06;;;;;;;18.73;13.13;;;;;;;;;;4969975;28;20041;-74
2021/03/10 07:42:32;;;;;;;24.23;12.32;;;;;;;;;;5009763;28;20046;-74
2021/03/10 07:44:57;;;;;;;16.92;12.27;;;;;;;;;;5028667;28;20169;-74
2021/03/10 07:47:23;;;;;;;16.33;11.63;;;;;;;;;;4992095;28;20031;-74
2021/03/10 07:49:58;;;;;;;21.75;11.38;;;;;;;;;;5024774;28;20497;-74
2021/03/10 07:52:26;;;;;;;18.83;11.05;;;;;;;;;;4975792;28;20512;-74
2021/03/10 07:55:02;;;;;;;15.45;9.98;;;;;;;;;;4976641;28;20405;-74
2021/03/10 07:57:27;;;;;;;12.05;9.35;;;;;;;;;;4960628;28;20039;-74
2021/03/10 07:59:57;;;;;;;15.77;9.40;;;;;;;;;;4976369;28;20404;-75
2021/03/10 08:02:24;;;;;;;14.52;9.60;;;;;;;;;;4992008;28;20030;-75
2021/03/10 08:05:01;;;;;;;12.95;8.57;;;;;;;;;;5024959;28;20192;-74
2021/03/10 08:07:31;;;;;;;15.65;8.77;;;;;;;;;;4960038;28;20038;-74
2021/03/10 08:09:57;;;;;;;12.18;8.85;;;;;;;;;;4976578;28;20042;-75
2021/03/10 08:12:36;;;;;;;16.13;8.75;;;;;;;;;;4959724;28;20037;-74
2021/03/10 08:15:03;;;;;;;10.73;8.00;;;;;;;;;;4975914;28;20073;-74
2021/03/10 08:17:43;;;;;;;13.10;7.53;;;;;;;;;;4992144;28;20034;-75
2021/03/10 08:20:09;;;;;;;13.90;7.95;;;;;;;;;;4992467;28;20050;-74
2021/03/10 08:22:34;;;;;;;9.77;7.18;;;;;;;;;;4975159;28;20101;-74
2021/03/10 08:25:00;;;;;;;12.45;6.63;;;;;;;;;;4990699;28;20389;-75
2021/03/10 08:27:29;;;;;;;13.20;8.45;;;;;;;;;;4969333;28;20046;-75
2021/03/10 08:29:55;;;;;;;10.80;6.68;;;;;;;;;;5020538;28;20108;-74
2021/03/10 08:32:30;;;;;;;15.07;7.93;;;;;;;;;;4990467;28;20452;-75
2021/03/10 08:35:00;;;;;;;11.55;6.22;;;;;;;;;;4976185;28;20042;-75
2021/03/10 08:37:25;;;;;;;9.15;6.53;;;;;;;;;;4975890;28;20117;-74
2021/03/10 08:39:51;;;;;;;11.50;6.68;;;;;;;;;;5024082;28;20117;-75
2021/03/10 08:42:20;;;;;;;10.70;5.90;;;;;;;;;;5008167;28;20397;-74
2021/03/10 08:44:46;;;;;;;11.15;6.22;;;;;;;;;;4998872;28;20031;-75
2021/03/10 08:47:18;;;;;;;10.07;5.95;;;;;;;;;;5007694;28;20040;-74
2021/03/10 08:49:44;;;;;;;11.35;6.90;;;;;;;;;;5023013;28;20117;-75
2021/03/10 08:52:10;;;;;;;9.45;5.63;;;;;;;;;;4959019;28;20124;-75
2021/03/10 08:54:48;;;;;;;8.35;5.97;;;;;;;;;;4992305;28;20468;-74
2021/03/10 08:57:16;;;;;;;10.55;5.63;;;;;;;;;;4974144;28;20042;-74
2021/03/10 08:59:42;;;;;;;9.48;5.47;;;;;;;;;;5007226;28;20058;-75
2021/03/10 09:02:08;;;;;;;10.23;5.63;;;;;;;;;;5007421;28;20455;-74
2021/03/10 09:04:33;;;;;;;7.68;5.20;;;;;;;;;;5023405;28;20039;-74
2021/03/10 09:06:59;;;;;;;7.88;5.40;;;;;;;;;;5007392;28;20043;-74
2021/03/10 09:09:25;;;;;;;7.93;5.05;;;;;;;;;;4987752;28;20050;-73
2021/03/10 09:11:54;;;;;;;7.95;5.43;;;;;;;;;;4987831;28;20058;-73
2021/03/10 09:14:20;;;;;;;7.55;4.85;;;;;;;;;;4978790;28;20049;-73
2021/03/10 09:16:54;;;;;;;8.15;5.00;;;;;;;;;;4987824;28;20588;-73
2021/03/10 09:19:29;;;;;;;6.78;4.78;;;;;;;;;;4987054;28;20041;-74
2021/03/10 09:22:08;;;;;;;6.60;4.32;;;;;;;;;;5004036;28;20053;-73
2021/03/10 09:24:47;;;;;;;5.72;4.20;;;;;;;;;;4987376;28;20044;-73
2021/03/10 09:27:29;;;;;;;9.60;4.90;;;;;;;;;;5023215;28;20046;-73
2021/03/10 09:29:59;;;;;;;5.88;3.97;;;;;;;;;;4971724;28;20043;-74
2021/03/10 09:32:25;;;;;;;8.45;4.03;;;;;;;;;;4990860;28;20053;-75
2021/03/10 09:34:54;;;;;;;5.53;3.80;;;;;;;;;;5007224;28;20023;-75
2021/03/10 09:37:27;;;;;;;4.55;3.65;;;;;;;;;;4974609;28;20042;-75
2021/03/10 09:39:53;;;;;;;5.13;3.75;;;;;;;;;;4990797;28;20106;-75
2021/03/10 09:42:19;;;;;;;5.32;3.65;;;;;;;;;;5007750;28;20121;-75
2021/03/10 09:44:51;;;;;;;5.65;3.75;;;;;;;;;;5023763;28;20034;-75
2021/03/10 09:47:24;;;;;;;5.20;3.53;;;;;;;;;;4987120;28;20039;-73
2021/03/10 09:49:53;;;;;;;5.45;3.58;;;;;;;;;;5021695;28;20246;-73
2021/03/10 09:52:33;;;;;;;4.80;3.47;;;;;;;;;;4973063;28;20514;-73
2021/03/10 09:54:59;;;;;;;6.15;3.60;;;;;;;;;;5004611;28;20037;-73
2021/03/10 09:57:27;;;;;;;5.53;3.25;;;;;;;;;;4990999;28;20416;-73
2021/03/10 09:59:53;;;;;;;5.40;4.00;;;;;;;;;;5020754;28;20034;-72
2021/03/10 10:02:19;;;;;;;5.07;3.33;;;;;;;;;;5009892;28;20034;-73
2021/03/10 10:05:06;;;;;;;5.85;3.80;;;;;;;;;;5003990;28;20045;-73
2021/03/10 10:07:32;;;;;;;5.32;3.17;;;;;;;;;;4969126;28;20268;-73
2021/03/10 10:09:57;;;;;;;5.43;3.15;;;;;;;;;;4986679;28;20039;-73
2021/03/10 10:12:23;;;;;;;5.57;3.13;;;;;;;;;;5022920;28;20034;-73
2021/03/10 10:14:49;;;;;;;4.90;3.45;;;;;;;;;;4980449;28;20039;-73
2021/03/10 10:17:15;;;;;;;6.50;3.40;;;;;;;;;;5004867;28;20100;-73
2021/03/10 10:19:41;;;;;;;5.20;3.08;;;;;;;;;;5005412;28;20050;-73
2021/03/10 10:22:07;;;;;;;4.50;3.20;;;;;;;;;;5002929;28;20046;-73
2021/03/10 10:24:32;;;;;;;5.03;2.60;;;;;;;;;;4988929;28;20050;-73
2021/03/10 10:26:58;;;;;;;5.55;3.65;;;;;;;;;;5023285;28;20393;-73
2021/03/10 10:29:23;;;;;;;5.05;3.03;;;;;;;;;;4992629;28;20045;-73
2021/03/10 10:31:49;;;;;;;6.15;3.38;;;;;;;;;;4985205;28;20038;-73
2021/03/10 10:34:14;;;;;;;5.25;2.85;;;;;;;;;;4977905;28;20121;-73
2021/03/10 10:36:40;;;;;;;4.95;3.20;;;;;;;;;;4976098;28;20108;-73
2021/03/10 10:39:05;;;;;;;6.75;3.83;;;;;;;;;;5007680;28;20121;-73
2021/03/10 10:41:31;;;;;;;5.53;3.50;;;;;;;;;;5015291;28;20027;-73
2021/03/10 10:43:57;;;;;;;4.35;3.00;;;;;;;;;;4977657;28;20042;-73
2021/03/10 10:46:22;;;;;;;3.95;2.42;;;;;;;;;;4993406;28;20117;-73
2021/03/10 10:48:47;;;;;;;4.55;2.70;;;;;;;;;;5026299;28;20496;-72
2021/03/10 10:51:13;;;;;;;5.20;2.60;;;;;;;;;;5009744;28;20034;-74
2021/03/10 10:53:38;;;;;;;6.30;2.80;;;;;;;;;;5009750;28;20034;-74
2021/03/10 10:56:07;;;;;;;5.55;2.33;;;;;;;;;;5010277;28;20034;-75
2021/03/10 10:58:33;;;;;;;8.48;3.40;;;;;;;;;;4991262;28;20194;-74
2021/03/10 11:00:58;;;;;;;5.78;3.25;;;;;;;;;;5023012;28;20030;-74
2021/03/10 11:03:25;;;;;;;5.22;2.65;;;;;;;;;;4993217;28;20031;-74
2021/03/10 11:05:50;;;;;;;4.75;2.72;;;;;;;;;;5009458;28;20069;-74
2021/03/10 11:08:16;;;;;;;7.72;2.33;;;;;;;;;;4992919;28;20038;-74
2021/03/10 11:10:41;;;;;;;4.05;2.17;;;;;;;;;;5009765;28;20186;-74
2021/03/10 11:13:07;;;;;;;3.35;2.55;;;;;;;;;;5026032;28;20058;-74
2021/03/10 11:15:32;;;;;;;3.97;2.50;;;;;;;;;;4993109;28;20412;-74
2021/03/10 11:17:58;;;;;;;4.82;3.40;;;;;;;;;;4993280;28;20038;-74
2021/03/10 11:20:23;;;;;;;4.60;2.63;;;;;;;;;;4976035;28;20034;-74
2021/03/10 11:22:48;;;;;;;4.63;2.17;;;;;;;;;;5009529;28;20045;-74
2021/03/10 11:25:14;;;;;;;4.72;2.75;;;;;;;;;;4993460;28;20030;-74
2021/03/10 11:27:40;;;;;;;3.38;1.95;;;;;;;;;;5026042;28;20038;-74
2021/03/10 11:30:06;;;;;;;4.55;2.63;;;;;;;;;;5008936;28;20042;-74
2021/03/10 11:32:32;;;;;;;5.40;2.80;;;;;;;;;;5009630;28;20041;-75
2021/03/10 11:34:57;;;;;;;2.90;2.00;;;;;;;;;;5025859;28;20423;-74
2021/03/10 11:37:23;;;;;;;5.53;2.13;;;;;;;;;;5024623;28;20050;-74
2021/03/10 11:39:48;;;;;;;3.40;1.83;;;;;;;;;;5025718;28;20382;-74
2021/03/10 11:42:13;;;;;;;4.30;2.85;;;;;;;;;;5009385;28;20076;-74
2021/03/10 11:44:39;;;;;;;4.03;2.33;;;;;;;;;;5009347;28;20049;-74
2021/03/10 11:47:04;;;;;;;4.78;1.88;;;;;;;;;;4992996;28;20409;-74
2021/03/10 11:49:30;;;;;;;4.68;3.00;;;;;;;;;;4992194;28;20417;-74
2021/03/10 11:51:55;;;;;;;3.97;2.63;;;;;;;;;;4992477;28;20413;-74
2021/03/10 11:54:23;;;;;;;3.35;2.40;;;;;;;;;;5025204;28;20040;-74
2021/03/10 11:56:48;;;;;;;4.15;2.03;;;;;;;;;;5024948;28;20038;-74
2021/03/10 11:59:14;;;;;;;4.10;1.98;;;;;;;;;;4993075;28;20105;-74
2021/03/10 12:01:39;;;;;;;4.30;1.95;;;;;;;;;;4993605;28;20489;-74
2021/03/10 12:04:04;;;;;;;6.85;3.30;;;;;;;;;;5025050;28;20406;-74
2021/03/10 12:06:30;;;;;;;6.10;2.97;;;;;;;;;;4991836;28;20404;-74
2021/03/10 12:08:55;;;;;;;12.48;6.35;;;;;;;;;;5008590;28;20057;-74
2021/03/10 12:11:21;;;;;;;11.57;6.80;;;;;;;;;;4993206;28;20034;-74
2021/03/10 12:13:46;;;;;;;22.48;9.93;;;;;;;;;;5004273;28;20500;-74
2021/03/10 12:16:11;;;;;;;14.13;7.78;;;;;;;;;;5008017;28;20463;-74
2021/03/10 12:18:37;;;;;;;22.77;8.55;;;;;;;;;;5024409;28;20452;-74
2021/03/10 12:21:03;;;;;;;13.25;5.80;;;;;;;;;;5008622;28;20129;-74
2021/03/10 12:23:29;;;;;;;17.08;9.30;;;;;;;;;;5025037;28;20565;-74
2021/03/10 12:25:54;;;;;;;11.30;6.25;;;;;;;;;;4991934;28;20497;-74
2021/03/10 12:28:19;;;;;;;11.70;5.53;;;;;;;;;;5024338;28;20034;-74
2021/03/10 12:30:45;;;;;;;8.43;5.97;;;;;;;;;;5008027;28;20034;-74
2021/03/10 12:33:11;;;;;;;9.80;5.15;;;;;;;;;;4991853;28;20039;-74
2021/03/10 12:35:36;;;;;;;8.73;4.35;;;;;;;;;;4991842;28;20120;-74
2021/03/10 12:38:02;;;;;;;9.98;4.45;;;;;;;;;;5007558;28;20049;-74
2021/03/10 12:40:27;;;;;;;11.65;4.53;;;;;;;;;;4991253;28;20042;-74
2021/03/10 12:42:53;;;;;;;12.88;4.20;;;;;;;;;;5007445;28;20034;-74
2021/03/10 12:45:19;;;;;;;7.22;3.63;;;;;;;;;;5008427;28;20035;-74
2021/03/10 12:47:44;;;;;;;12.70;3.92;;;;;;;;;;5007508;28;20034;-74
2021/03/10 12:50:10;;;;;;;9.10;4.05;;;;;;;;;;4990085;28;20047;-74
2021/03/10 12:52:36;;;;;;;9.95;4.53;;;;;;;;;;4991203;28;20118;-74
2021/03/10 12:55:02;;;;;;;10.75;4.00;;;;;;;;;;4975463;28;20056;-74
2021/03/10 12:57:27;;;;;;;9.27;3.80;;;;;;;;;;4973965;28;20046;-74
2021/03/10 12:59:53;;;;;;;5.93;3.53;;;;;;;;;;5023989;28;20524;-75
2021/03/10 13:02:18;;;;;;;6.05;3.22;;;;;;;;;;5007565;28;20046;-74
2021/03/10 13:04:44;;;;;;;8.55;4.10;;;;;;;;;;5007620;28;20408;-74
2021/03/10 13:07:10;;;;;;;6.60;4.03;;;;;;;;;;5023987;28;20505;-74
2021/03/10 13:09:36;;;;;;;9.43;5.40;;;;;;;;;;5027119;23;20439;-74
2021/03/10 13:12:01;;;;;;;13.32;6.65;;;;;;;;;;5027081;28;20669;-74
2021/03/10 13:14:27;;;;;;;8.05;5.80;;;;;;;;;;5022471;28;20120;-74
2021/03/10 13:16:52;;;;;;;10.98;6.05;;;;;;;;;;5014385;28;20408;-74
2021/03/10 13:19:18;;;;;;;11.10;5.93;;;;;;;;;;5013777;28;20045;-74
2021/03/10 13:21:43;;;;;;;10.38;4.97;;;;;;;;;;5030131;28;20117;-74
2021/03/10 13:24:09;;;;;;;7.70;4.57;;;;;;;;;;4997608;28;20407;-74
2021/03/10 13:26:34;;;;;;;10.15;4.65;;;;;;;;;;5013783;28;20037;-74
2021/03/10 13:29:00;;;;;;;9.85;5.18;;;;;;;;;;5030764;28;20037;-74
2021/03/10 13:31:25;;;;;;;8.57;4.60;;;;;;;;;;5030238;28;20040;-74
2021/03/10 13:33:51;;;;;;;8.95;4.38;;;;;;;;;;5030383;28;20045;-74
2021/03/10 13:36:18;;;;;;;5.43;4.18;;;;;;;;;;5013431;28;20041;-74
2021/03/10 13:38:43;;;;;;;10.73;4.88;;;;;;;;;;5024060;28;20515;-74
2021/03/10 13:41:09;;;;;;;8.40;3.85;;;;;;;;;;4993748;28;20034;-74
2021/03/10 13:43:34;;;;;;;10.25;4.32;;;;;;;;;;4994280;28;20042;-74
2021/03/10 13:46:00;;;;;;;8.75;3.78;;;;;;;;;;4994092;28;20034;-74
2021/03/10 13:48:25;;;;;;;8.25;4.03;;;;;;;;;;5010519;28;20420;-74
2021/03/10 13:50:51;;;;;;;6.72;3.33;;;;;;;;;;4977513;28;20030;-74
2021/03/10 13:53:17;;;;;;;7.60;3.53;;;;;;;;;;4978227;28;20053;-74
2021/03/10 13:55:42;;;;;;;5.72;3.55;;;;;;;;;;4994254;28;20045;-74
2021/03/10 13:58:08;;;;;;;7.40;3.58;;;;;;;;;;5011571;28;20046;-74
2021/03/10 14:00:34;;;;;;;7.65;3.22;;;;;;;;;;4992477;28;20449;-74
2021/03/10 14:02:59;;;;;;;6.65;3.35;;;;;;;;;;4978357;28;20402;-74
2021/03/10 14:05:25;;;;;;;14.50;4.53;;;;;;;;;;5010803;28;20038;-74
2021/03/10 14:07:50;;;;;;;4.95;3.47;;;;;;;;;;5010877;28;20042;-74
2021/03/10 14:10:15;;;;;;;9.07;2.97;;;;;;;;;;4993747;28;20401;-74
2021/03/10 14:12:42;;;;;;;7.32;2.70;;;;;;;;;;4994465;28;20046;-74
2021/03/10 14:15:08;;;;;;;5.35;2.70;;;;;;;;;;5031224;28;20116;-74
2021/03/10 14:17:34;;;;;;;7.15;3.15;;;;;;;;;;5033741;28;20110;-74
2021/03/10 14:20:00;;;;;;;9.68;4.78;;;;;;;;;;5017142;28;20072;-74
2021/03/10 14:22:25;;;;;;;6.07;3.28;;;;;;;;;;5016832;28;20475;-74
2021/03/10 14:24:51;;;;;;;9.43;3.83;;;;;;;;;;5016767;28;20175;-74
2021/03/10 14:27:18;;;;;;;9.38;3.20;;;;;;;;;;5016812;28;20486;-73
2021/03/10 14:29:44;;;;;;;9.35;3.80;;;;;;;;;;5024935;28;20041;-74
2021/03/10 14:32:09;;;;;;;6.68;3.20;;;;;;;;;;5012498;28;20053;-75
2021/03/10 14:34:35;;;;;;;8.32;3.05;;;;;;;;;;5013106;28;20038;-75
2021/03/10 14:37:00;;;;;;;6.80;3.53;;;;;;;;;;4994203;28;20037;-75
2021/03/10 14:39:26;;;;;;;8.52;3.40;;;;;;;;;;5010328;28;20069;-75